KAOO/AOO METAR and TAF weather

Enter ICAO airport designator
Station Type Date Time Source
KAOO METAR 2019/08/25 17:53 UTC NOAA

KAOO 251753Z AUTO 08008KT 10SM SCT060 21/09 A3026 RMK AO2 SLP243 T02110094 10222 20117 58009


Station Type Date Time Source
KAOO Decoded METAR 2019/08/25 17:53 UTC NOAA

Station name not available
Aug 25, 2019 - 01:53 PM EDT / 2019.08.25 1753 UTC
Wind: from the E (080 degrees) at 9 MPH (8 KT):0
Visibility: 10 mile(s):0
Sky conditions: partly cloudy
Temperature: 70.0 F (21.1 C)
Dew Point: 48.9 F (9.4 C)
Relative Humidity: 47%
Pressure (altimeter): 30.26 in. Hg (1024 hPa)
Pressure tendency: 0.03 inches (0.9 hPa) lower than three hours ago
ob: KAOO 251753Z AUTO 08008KT 10SM SCT060 21/09 A3026 RMK AO2 SLP243 T02110094 10222 20117 58009
cycle: 18

Station Type Date Time Source
KAOO TAF 2019/08/25 18:45 UTC NOAA

TAF KAOO 251741Z 2518/2618 11007KT P6SM SCT050
FM252200 12004KT P6SM FEW050
FM261000 11003KT P6SM BKN020
FM261500 12008KT P6SM SCT040

Example: see airport list